Paranhos, Brazil
Current Conditions -  °F | °C
As of 8:00 AM on Friday 21 Nov 2014 (Local Time) from SGES Reporting Station
Broken Clouds Broken Clouds  
Wind Chill: 75°   Ceiling: 7000
Heat Index: 75°   Visibility: 6mi
Dew Point: 72°   Wind: 9mph
Humidity: 89%   Direction: 60°ENE
Pressure: 29.85"   Gusts: NA
Location:  23.89°S, 55.43°W
Report Text: SGES 211100Z 06008KT 9999 SCT030 BKN070 24/22 Q1011
Loading
Personal Weather Stations






























Interactive Weather Map New forecast layout! Learn more

10-Day Weather Forecast

Advertisements
Track Severe Weather on mobile